Ogden, IL (61859)

11:18 PM CDT on July 26, 2016 (GMT -0500)
Ogden, IL | | Change Station

Elev 669 ft 40.13 °N, 87.94 °W | Updated 7 minutes ago

Clear
Clear
68.0 °F
Feels Like 68.0 °F
N
1.1
Wind Variable Wind from NNW

Today
High -- | Low -- °F
--% Chance of Precip.
Yesterday
High -- | Low -- °F
Precip. -- in
Pressure 30.02 in
Visibility 10.0 miles
Clouds Clear
Dew Point 67 °F
Humidity 98%
Rainfall 0.03 in
Snow Depth Not available.
5:44 AM 8:11 PM
Waning Gibbous, 47% visible
METAR KCMI 270353Z 00000KT 10SM CLR 22/19 A3004 RMK AO2 SLP166 T02170194
Pressure 30.02 in
Visibility 10.0 miles
Clouds Clear
Dew Point 67 °F
Humidity 98%
Rainfall 0.03 in
Snow Depth Not available.
5:44 AM 8:11 PM
Waning Gibbous, 47% visible
METAR KCMI 270353Z 00000KT 10SM CLR 22/19 A3004 RMK AO2 SLP166 T02170194

10-Day Weather Forecast

Almanac

Astronomy

Jul. 26, 2016 Rise Set
Actual Time
Civil Twilight
Nautical Twilight
Astronomical Twilight
Moon
Length of Visible Light
Length of Day
Tomorrow will be .
, % of the Moon is Illuminated

Today's Extremes

State Highs State Lows

Community

WunderPhotos

Upload Photos

1,927,813 photos uploaded!

WunderBlog® & News

Nearby

Air Quality

  Air Quality AQ Index Pollutant
Not available.

Snow Depth

Station Depth Elevation

Earthquake Activity

City Distance Mag. Time & Date
Minimum magnitude displayed is 2.5.

Coastal Water Temperatures

Place Temperature

Stations

Nearby Weather Stations

Station Location Temp. Windchill Dew Point Humidity Wind Precip. Elev Updated Type
                   

Watches & Warnings

There are currently no watches in effect.